Time;durP1;ratioP1;P1;durP2;ratioP2;P2;SDS_P1;SDS_P2;PMS_P1;PMS_P2;Temp;Humidity;BMP_temperature;BMP_pressure;BME280_temperature;BME280_humidity;BME280_pressure;Samples;Min_cycle;Max_cycle;Signal;HPM_P1;HPM_P2
2022/05/29 00:00:25;;;;;;;3.58;3.17;;;;;;;24.39;49.75;100290.66;1741078;82;21010;-77
2022/05/29 00:02:52;;;;;;;3.40;3.10;;;;;;;24.40;49.70;100287.30;1764858;81;21501;-76
2022/05/29 00:05:18;;;;;;;3.42;2.90;;;;;;;24.40;49.71;100281.73;1765302;80;21217;-76
2022/05/29 00:07:48;;;;;;;5.83;3.35;;;;;;;24.40;49.71;100265.06;1764085;81;21033;-77
2022/05/29 00:10:15;;;;;;;4.08;3.52;;;;;;;24.39;49.73;100257.87;1827346;78;20999;-77
2022/05/29 00:12:43;;;;;;;3.75;3.27;;;;;;;24.40;49.71;100263.67;1741072;81;21019;-77
2022/05/29 00:15:12;;;;;;;4.05;2.95;;;;;;;24.39;49.74;100262.05;1743380;81;21101;-76
2022/05/29 00:17:38;;;;;;;3.35;3.05;;;;;;;24.39;49.77;100262.05;1764881;80;21309;-77
2022/05/29 00:20:06;;;;;;;3.85;3.40;;;;;;;24.39;49.80;100262.86;1741209;82;20989;-77
2022/05/29 00:22:33;;;;;;;3.85;3.45;;;;;;;24.39;49.77;100248.95;1764702;80;21073;-77
2022/05/29 00:24:59;;;;;;;4.55;3.40;;;;;;;24.38;49.72;100239.56;1765021;80;20951;-77
2022/05/29 00:27:25;;;;;;;4.62;3.50;;;;;;;24.38;49.76;100236.20;1764842;80;21053;-77
2022/05/29 00:29:51;;;;;;;4.90;3.15;;;;;;;24.40;49.76;100251.16;1764591;80;21593;-77
2022/05/29 00:32:18;;;;;;;3.30;2.95;;;;;;;24.39;49.74;100257.30;1761804;81;21082;-77
2022/05/29 00:34:44;;;;;;;3.60;3.27;;;;;;;24.38;49.74;100255.67;1698512;84;21089;-77
2022/05/29 00:37:10;;;;;;;4.37;3.75;;;;;;;24.39;49.79;100249.53;1759664;80;21596;-77
2022/05/29 00:39:37;;;;;;;4.30;3.55;;;;;;;24.39;49.87;100262.86;1759741;80;21101;-77
2022/05/29 00:42:06;;;;;;;4.10;3.58;;;;;;;24.39;49.91;100280.93;1736949;81;21274;-77
2022/05/29 00:44:33;;;;;;;4.67;3.83;;;;;;;24.39;49.96;100304.56;1759603;81;21038;-76
2022/05/29 00:47:18;;;;;;;5.33;3.87;;;;;;;24.39;49.99;100302.36;1761650;80;21077;-77
2022/05/29 00:49:48;;;;;;;3.87;3.42;;;;;;;24.40;50.03;100305.37;1760377;80;21058;-77
2022/05/29 00:52:24;;;;;;;4.55;3.60;;;;;;;24.39;50.00;100305.14;1760128;80;20947;-77
2022/05/29 00:55:00;;;;;;;3.80;3.37;;;;;;;24.38;49.98;100295.17;1698319;83;21025;-76
2022/05/29 00:57:31;;;;;;;3.72;3.27;;;;;;;24.38;49.91;100297.38;1697330;83;21030;-77
2022/05/29 01:00:02;;;;;;;3.70;3.30;;;;;;;24.38;49.87;100307.69;1759979;81;21100;-77
2022/05/29 01:02:29;;;;;;;3.83;3.52;;;;;;;24.38;49.86;100302.94;1759462;81;21046;-77
2022/05/29 01:04:55;;;;;;;3.70;3.20;;;;;;;24.37;49.84;100301.89;1760553;80;21037;-77
2022/05/29 01:07:21;;;;;;;3.70;3.27;;;;;;;24.38;49.82;100295.98;1737812;81;21567;-77
2022/05/29 01:09:48;;;;;;;3.67;3.37;;;;;;;24.38;49.78;100295.17;1759990;80;21073;-77
2022/05/29 01:12:40;;;;;;;3.70;3.40;;;;;;;24.38;49.75;100286.83;1760901;80;21548;-77
2022/05/29 01:15:18;;;;;;;3.77;3.47;;;;;;;24.38;49.72;100282.66;1736587;81;21053;-77
2022/05/29 01:17:56;;;;;;;3.67;3.37;;;;;;;24.38;49.71;100274.32;1760061;80;21388;-77
2022/05/29 01:20:54;;;;;;;4.12;3.30;;;;;;;24.37;49.69;100283.23;1759962;80;21027;-77
2022/05/29 01:23:37;;;;;;;3.90;3.50;;;;;;;24.37;49.70;100292.16;1697451;84;21135;-77
2022/05/29 01:26:59;;;;;;;4.10;3.37;;;;;;;24.36;49.69;100298.88;1759850;80;21105;-77
2022/05/29 01:29:42;;;;;;;4.17;3.77;;;;;;;24.36;49.70;100309.42;1697572;83;20935;-77
2022/05/29 01:32:15;;;;;;;3.55;3.25;;;;;;;24.35;49.67;100323.12;1760164;77;21002;-77
2022/05/29 01:34:49;;;;;;;3.45;3.15;;;;;;;24.33;49.70;100326.82;1762202;81;21264;-77
2022/05/29 01:37:30;;;;;;;3.70;3.40;;;;;;;24.34;49.70;100327.05;1829221;78;20820;-77
2022/05/29 01:40:14;;;;;;;3.72;3.42;;;;;;;24.35;49.75;100336.21;1829184;78;21013;-77
2022/05/29 01:42:54;;;;;;;4.80;3.40;;;;;;;24.35;49.82;100345.36;1829415;78;21033;-77
2022/05/29 01:45:33;;;;;;;;;;;;;;;24.34;49.87;100345.13;1763204;81;21077;-77
2022/05/29 01:48:11;;;;;;;4.25;2.92;;;;;;;24.34;49.98;100349.88;1762536;81;23469;-77
2022/05/29 01:50:41;;;;;;;5.42;3.40;;;;;;;24.31;49.99;100348.63;1793351;79;21061;-77
2022/05/29 01:53:14;;;;;;;3.63;3.30;;;;;;;24.28;50.10;100348.50;1771244;81;21615;-77
2022/05/29 01:55:47;;;;;;;4.00;3.60;;;;;;;24.28;50.10;100348.50;1769822;81;21321;-77
2022/05/29 01:58:18;;;;;;;3.20;2.80;;;;;;;24.31;50.15;100358.36;1761333;80;20977;-77
2022/05/29 02:00:45;;;;;;;3.55;2.98;;;;;;;24.32;50.19;100354.39;1806810;77;21284;-77
2022/05/29 02:03:19;;;;;;;4.65;3.37;;;;;;;24.33;50.18;100359.37;1763088;80;21100;-77
2022/05/29 02:05:50;;;;;;;3.25;2.95;;;;;;;24.32;50.20;100358.56;1768695;79;21124;-77
2022/05/29 02:08:24;;;;;;;3.10;2.80;;;;;;;24.33;50.23;100356.59;1761309;80;21034;-77
2022/05/29 02:10:56;;;;;;;3.98;3.08;;;;;;;24.32;50.22;100359.95;1775686;80;21045;-77
2022/05/29 02:13:50;;;;;;;3.45;3.05;;;;;;;24.33;50.25;100356.59;1763400;81;21149;-77
2022/05/29 02:16:34;;;;;;;3.27;2.67;;;;;;;24.33;50.24;100364.93;1762956;80;21472;-77
2022/05/29 02:19:12;;;;;;;4.00;3.37;;;;;;;24.33;50.23;100367.14;1830433;77;21045;-77
2022/05/29 02:21:52;;;;;;;4.30;3.10;;;;;;;24.34;50.21;100367.95;1760793;81;20970;-77
2022/05/29 02:24:21;;;;;;;4.72;3.40;;;;;;;24.32;50.25;100372.46;1793945;79;21540;-77
2022/05/29 02:27:06;;;;;;;3.75;3.15;;;;;;;24.32;50.28;100373.84;1830021;78;21163;-77
2022/05/29 02:29:32;;;;;;;4.17;2.83;;;;;;;24.32;50.28;100366.09;1830220;78;21112;-76
2022/05/29 02:32:39;;;;;;;3.87;2.70;;;;;;;24.30;50.31;100356.73;1830625;77;21187;-76
2022/05/29 02:35:13;;;;;;;3.52;3.15;;;;;;;24.31;50.33;100359.75;1830170;78;21061;-77
2022/05/29 02:37:50;;;;;;;3.12;2.83;;;;;;;24.31;50.29;100354.19;1829952;77;20939;-77
2022/05/29 02:40:34;;;;;;;3.08;2.80;;;;;;;24.32;50.35;100353.58;1806843;78;21491;-77
2022/05/29 02:43:37;;;;;;;3.30;3.00;;;;;;;24.32;50.35;100357.75;1762746;81;21073;-77
2022/05/29 02:46:36;;;;;;;3.25;2.92;;;;;;;24.31;50.28;100358.94;1793407;79;21065;-77
2022/05/29 02:49:22;;;;;;;3.83;2.98;;;;;;;24.31;50.24;100366.70;1764092;81;21503;-77
2022/05/29 02:51:52;;;;;;;4.15;3.22;;;;;;;24.30;50.21;100367.03;1793691;79;21002;-77
2022/05/29 02:54:27;;;;;;;4.00;3.12;;;;;;;24.30;50.20;100368.42;1830638;77;21239;-77
2022/05/29 02:56:54;;;;;;;3.58;2.77;;;;;;;24.29;50.17;100369.00;1762833;81;21045;-77
2022/05/29 02:59:24;;;;;;;3.17;2.70;;;;;;;24.30;50.17;100367.03;1794899;79;20975;-77
2022/05/29 03:02:11;;;;;;;3.52;2.35;;;;;;;24.30;50.17;100375.38;1830530;77;21072;-77
2022/05/29 03:05:25;;;;;;;3.15;2.80;;;;;;;24.30;50.19;100378.97;1828935;78;21028;-77
2022/05/29 03:08:12;;;;;;;2.98;2.67;;;;;;;24.30;50.19;100385.92;1762332;81;21555;-76
2022/05/29 03:11:02;;;;;;;3.00;2.67;;;;;;;24.30;50.14;100385.11;1792495;79;21018;-77
2022/05/29 03:13:58;;;;;;;3.40;2.72;;;;;;;24.29;50.15;100382.91;1750199;80;21021;-76
2022/05/29 03:16:39;;;;;;;3.40;3.02;;;;;;;24.29;50.15;100377.34;1761947;80;21524;-77
2022/05/29 03:19:28;;;;;;;3.22;2.92;;;;;;;24.28;50.16;100364.60;1790508;79;21591;-76
2022/05/29 03:22:12;;;;;;;3.10;2.80;;;;;;;24.28;50.20;100371.55;1762571;81;21106;-76
2022/05/29 03:24:50;;;;;;;3.58;2.95;;;;;;;24.28;50.24;100371.55;1829489;77;21069;-77
2022/05/29 03:27:33;;;;;;;3.52;2.50;;;;;;;24.28;50.26;100356.84;1761144;80;21512;-77
2022/05/29 03:30:08;;;;;;;2.92;2.60;;;;;;;24.27;50.27;100354.66;1794735;79;21101;-77
2022/05/29 03:32:35;;;;;;;3.37;3.02;;;;;;;24.27;50.31;100360.23;1763186;81;21301;-77
2022/05/29 03:35:30;;;;;;;2.75;2.40;;;;;;;24.27;50.31;100367.17;1793243;79;21571;-76
2022/05/29 03:37:57;;;;;;;2.72;2.35;;;;;;;24.28;50.35;100367.95;1762325;81;21069;-76
2022/05/29 03:40:25;;;;;;;3.35;2.52;;;;;;;24.27;50.34;100369.95;1773029;80;22045;-76
2022/05/29 03:42:51;;;;;;;3.12;2.80;;;;;;;24.27;50.37;100368.56;1762846;81;21037;-77
2022/05/29 03:45:18;;;;;;;2.83;2.50;;;;;;;24.27;50.41;100371.34;1774351;80;21555;-77
2022/05/29 03:47:44;;;;;;;3.42;2.08;;;;;;;24.27;50.41;100361.61;1763472;80;21230;-76
2022/05/29 03:50:14;;;;;;;3.42;2.72;;;;;;;24.28;50.43;100359.04;1775627;80;21073;-76
2022/05/29 03:52:40;;;;;;;3.37;2.70;;;;;;;24.28;50.46;100361.82;1761786;80;20998;-77
2022/05/29 03:55:08;;;;;;;3.10;2.80;;;;;;;24.27;50.44;100351.88;1763036;81;21308;-76
2022/05/29 03:57:34;;;;;;;3.05;2.72;;;;;;;24.28;50.46;100352.09;1754082;80;21575;-77
2022/05/29 04:00:01;;;;;;;3.60;2.50;;;;;;;24.29;50.48;100347.34;1761718;81;21115;-77
2022/05/29 04:02:27;;;;;;;3.87;2.40;;;;;;;24.29;50.52;100355.69;1762029;79;21044;-77
2022/05/29 04:04:54;;;;;;;3.27;2.60;;;;;;;24.29;50.49;100358.46;1795196;79;21113;-77
2022/05/29 04:12:03;;;;;;;3.00;2.70;;;;;;;24.28;50.51;100356.26;1754230;80;21493;-77
2022/05/29 04:12:19;;;;;;;3.15;2.70;;;;;;;24.29;50.54;100371.78;1718352;81;21144;-77
2022/05/29 04:14:45;;;;;;;5.37;2.70;;;;;;;24.29;50.54;100381.52;1738089;81;21005;-77
2022/05/29 04:17:15;;;;;;;2.72;2.30;;;;;;;24.28;50.56;100397.96;1795673;79;21025;-77
2022/05/29 04:19:41;;;;;;;3.27;2.52;;;;;;;24.29;50.59;100397.38;1762624;81;20958;-77
2022/05/29 04:22:09;;;;;;;3.08;2.62;;;;;;;24.29;50.60;100395.99;1793322;79;21591;-77
2022/05/29 04:24:36;;;;;;;3.45;2.50;;;;;;;24.29;50.59;100398.20;1771114;80;21127;-77
2022/05/29 04:27:03;;;;;;;2.62;2.25;;;;;;;24.29;50.59;100400.98;1771184;80;21018;-77
2022/05/29 04:29:29;;;;;;;2.90;2.60;;;;;;;24.28;50.61;100399.34;1770765;80;20999;-78
2022/05/29 04:34:42;;;;;;;2.75;2.05;;;;;;;24.29;50.62;100415.45;1810490;78;20951;-77
2022/05/29 04:37:08;;;;;;;2.87;2.47;;;;;;;24.29;50.62;100435.73;1830029;78;22015;-78
2022/05/29 04:39:36;;;;;;;2.85;2.25;;;;;;;24.29;50.61;100442.68;1806605;78;21018;-77
2022/05/29 04:42:04;;;;;;;2.87;2.62;;;;;;;24.29;50.62;100447.42;1829804;77;20978;-77
2022/05/29 04:44:31;;;;;;;2.90;2.42;;;;;;;24.28;50.62;100437.45;1830113;77;21010;-77
2022/05/29 04:47:00;;;;;;;2.67;2.33;;;;;;;24.28;50.61;100434.10;1830083;77;21559;-78
2022/05/29 04:49:27;;;;;;;2.52;2.33;;;;;;;24.28;50.62;100438.27;1829732;77;22055;-78
2022/05/29 04:51:53;;;;;;;2.98;2.42;;;;;;;24.27;50.63;100440.84;1738351;81;21032;-79
2022/05/29 04:54:19;;;;;;;2.80;2.45;;;;;;;24.28;50.61;100445.22;1792699;79;21046;-78
2022/05/29 04:56:49;;;;;;;2.77;2.40;;;;;;;24.27;50.62;100445.02;1829835;77;21068;-77
2022/05/29 04:59:15;;;;;;;2.10;1.87;;;;;;;24.28;50.60;100445.22;1830362;77;20982;-77
2022/05/29 05:01:42;;;;;;;3.10;2.52;;;;;;;24.28;50.62;100441.63;1761846;80;21204;-77
2022/05/29 05:04:08;;;;;;;3.42;2.33;;;;;;;24.27;50.61;100436.67;1792801;79;21080;-77
2022/05/29 05:06:35;;;;;;;2.83;2.47;;;;;;;24.28;50.61;100438.27;1830096;78;21074;-76
2022/05/29 05:09:01;;;;;;;2.33;2.02;;;;;;;24.27;50.60;100433.89;1830107;77;20986;-77
2022/05/29 05:11:28;;;;;;;2.55;2.20;;;;;;;24.28;50.60;100451.36;1829847;78;21024;-77
2022/05/29 05:13:54;;;;;;;3.75;2.50;;;;;;;24.28;50.61;100452.17;1830039;77;21212;-77
2022/05/29 05:16:20;;;;;;;2.92;2.25;;;;;;;24.28;50.61;100450.78;1830052;77;21025;-77
2022/05/29 05:18:46;;;;;;;3.17;2.10;;;;;;;24.28;50.60;100447.19;1829621;77;20959;-76
2022/05/29 05:21:12;;;;;;;3.58;2.50;;;;;;;24.27;50.61;100438.64;1830013;77;21006;-77
2022/05/29 05:23:40;;;;;;;2.90;2.30;;;;;;;24.28;50.58;100429.93;1830016;77;20883;-77
2022/05/29 05:26:10;;;;;;;2.52;2.12;;;;;;;24.27;50.60;100429.73;1833980;77;21464;-77
2022/05/29 05:28:36;;;;;;;3.17;2.40;;;;;;;24.27;50.60;100428.34;1830219;78;21365;-76
2022/05/29 05:31:02;;;;;;;2.80;2.25;;;;;;;24.27;50.59;100421.96;1806966;78;21342;-76
2022/05/29 05:33:28;;;;;;;3.27;2.22;;;;;;;24.27;50.59;100415.02;1829578;78;21052;-77
2022/05/29 05:35:56;;;;;;;3.33;2.10;;;;;;;24.27;50.59;100410.84;1761433;81;21021;-77
2022/05/29 05:38:22;;;;;;;3.37;1.95;;;;;;;24.26;50.58;100419.76;1779743;80;21483;-77
2022/05/29 05:40:49;;;;;;;2.92;1.85;;;;;;;24.26;50.61;100436.44;1779350;80;21002;-77
2022/05/29 05:43:15;;;;;;;3.12;2.40;;;;;;;24.26;50.58;100450.34;1749002;82;21284;-77
2022/05/29 05:45:42;;;;;;;3.22;2.20;;;;;;;24.26;50.58;100459.26;1779609;80;21006;-76
2022/05/29 05:48:09;;;;;;;2.20;1.90;;;;;;;24.26;50.58;100468.98;1748919;82;21030;-76
2022/05/29 05:50:36;;;;;;;3.27;2.12;;;;;;;24.26;50.58;100464.81;1779694;80;21121;-77
2022/05/29 05:53:02;;;;;;;2.87;2.20;;;;;;;24.26;50.57;100458.68;1755233;80;21053;-77
2022/05/29 05:55:29;;;;;;;2.05;1.85;;;;;;;24.26;50.57;100447.56;1779379;80;21077;-77
2022/05/29 05:57:55;;;;;;;2.40;2.10;;;;;;;24.26;50.58;100442.58;1779717;80;21045;-76
2022/05/29 06:00:23;;;;;;;2.47;1.87;;;;;;;24.26;50.58;100439.80;1749023;82;21025;-77
2022/05/29 06:02:49;;;;;;;2.33;2.00;;;;;;;24.25;50.56;100451.49;1779314;80;21156;-77
2022/05/29 06:05:15;;;;;;;2.75;2.05;;;;;;;24.25;50.59;100448.71;1779579;80;21317;-76
2022/05/29 06:07:41;;;;;;;2.47;2.00;;;;;;;24.25;50.58;100456.23;1779731;80;21096;-76
2022/05/29 06:10:09;;;;;;;2.20;2.00;;;;;;;24.25;50.57;100478.48;1779319;80;21006;-76
2022/05/29 06:12:41;;;;;;;3.20;1.92;;;;;;;24.24;50.57;100477.66;1779454;80;21092;-76
2022/05/29 06:15:08;;;;;;;2.60;2.20;;;;;;;24.24;50.57;100470.72;1779831;80;21505;-76
2022/05/29 06:17:34;;;;;;;2.50;2.10;;;;;;;24.24;50.57;100474.88;1748734;81;21030;-77
2022/05/29 06:20:01;;;;;;;2.80;2.08;;;;;;;24.24;50.57;100471.29;1779582;80;21037;-77
2022/05/29 06:22:27;;;;;;;2.37;1.98;;;;;;;24.24;50.57;100472.11;1779809;80;21484;-77
2022/05/29 06:24:53;;;;;;;3.02;2.05;;;;;;;24.24;50.54;100478.24;1781066;80;21150;-77
2022/05/29 06:27:20;;;;;;;2.80;1.90;;;;;;;24.23;50.54;100480.20;1780024;80;21025;-76
2022/05/29 06:29:52;;;;;;;3.83;1.90;;;;;;;24.24;50.54;100471.29;1779487;80;21548;-76
2022/05/29 06:32:18;;;;;;;2.40;2.00;;;;;;;24.23;50.53;100471.87;1755361;80;21073;-76
2022/05/29 06:34:44;;;;;;;2.00;1.80;;;;;;;24.24;50.53;100476.27;1768288;80;21116;-76
2022/05/29 06:37:11;;;;;;;3.15;2.10;;;;;;;24.23;50.52;100463.53;1765497;80;21450;-77
2022/05/29 06:39:37;;;;;;;2.92;1.80;;;;;;;24.23;50.54;100444.07;1768423;81;21926;-77
2022/05/29 06:42:05;;;;;;;2.90;1.75;;;;;;;24.24;50.51;100424.03;1764973;81;21057;-77
2022/05/29 06:44:31;;;;;;;3.37;1.70;;;;;;;24.23;50.52;100403.76;1765642;80;21292;-77
2022/05/29 06:46:58;;;;;;;2.75;1.70;;;;;;;24.23;50.51;100399.59;1805490;78;20978;-77
2022/05/29 06:49:30;;;;;;;2.90;1.98;;;;;;;24.23;50.50;100399.59;1826822;77;21025;-77
2022/05/29 06:51:56;;;;;;;3.17;1.85;;;;;;;24.24;50.51;100408.74;1741464;82;21960;-76
2022/05/29 06:54:22;;;;;;;2.15;1.80;;;;;;;24.24;50.46;100405.39;1764721;81;21065;-76
2022/05/29 06:56:48;;;;;;;3.27;1.90;;;;;;;24.24;50.44;100394.84;1732352;82;21038;-76
2022/05/29 06:59:15;;;;;;;2.85;1.92;;;;;;;24.23;50.41;100389.86;1826629;77;21028;-77
2022/05/29 07:07:13;;;;;;;2.15;1.85;;;;;;;24.26;50.32;100392.53;1764796;81;20975;-76
2022/05/29 07:09:40;;;;;;;2.58;1.90;;;;;;;24.26;50.30;100417.55;1741207;81;21030;-76
2022/05/29 07:12:16;;;;;;;2.15;1.80;;;;;;;24.25;50.28;100419.52;1764689;81;21002;-77
2022/05/29 07:14:46;;;;;;;3.10;2.00;;;;;;;24.25;50.24;100420.91;1768806;80;21042;-77
2022/05/29 07:17:12;;;;;;;2.12;1.77;;;;;;;24.25;50.23;100416.74;1826600;77;21221;-77
2022/05/29 07:19:41;;;;;;;2.67;2.12;;;;;;;24.24;50.19;100408.16;1826593;78;20954;-76
2022/05/29 07:22:07;;;;;;;2.60;1.65;;;;;;;24.26;50.19;100416.16;1826476;78;21465;-76
2022/05/29 07:24:35;;;;;;;2.02;1.57;;;;;;;24.25;50.19;100432.03;1826662;78;21018;-77
2022/05/29 07:27:01;;;;;;;2.58;1.80;;;;;;;24.26;50.18;100432.84;1741332;82;21563;-77
2022/05/29 07:29:27;;;;;;;2.22;1.67;;;;;;;24.26;50.17;100437.02;1764935;80;22142;-77
2022/05/29 07:31:54;;;;;;;2.90;1.75;;;;;;;24.27;50.15;100444.20;1826900;78;20911;-76
2022/05/29 07:34:20;;;;;;;1.67;1.40;;;;;;;24.27;50.12;100456.71;1827792;78;20883;-77
2022/05/29 07:36:50;;;;;;;2.10;1.55;;;;;;;24.26;50.11;100458.68;1829884;78;21005;-77
2022/05/29 07:39:16;;;;;;;2.90;2.00;;;;;;;24.27;50.11;100466.44;1830131;78;21033;-76
2022/05/29 07:44:27;;;;;;;1.95;1.50;;;;;;;24.28;50.09;100463.87;1761997;81;21037;-77
2022/05/29 07:46:53;;;;;;;2.12;1.80;;;;;;;24.27;50.08;100458.11;1830442;77;20990;-76
2022/05/29 07:49:20;;;;;;;2.45;1.87;;;;;;;24.28;50.08;100461.09;1830011;78;21009;-77
2022/05/29 07:51:52;;;;;;;2.85;1.90;;;;;;;24.27;50.08;100449.77;1761295;81;21028;-77
2022/05/29 07:54:20;;;;;;;2.85;2.00;;;;;;;24.27;50.05;100445.02;1829760;78;21564;-77
2022/05/29 07:56:46;;;;;;;2.87;2.05;;;;;;;24.27;50.05;100433.08;1761550;81;21042;-76
2022/05/29 07:59:14;;;;;;;3.45;1.90;;;;;;;24.26;50.05;100435.05;1793224;79;20946;-76
2022/05/29 08:01:40;;;;;;;2.05;1.80;;;;;;;24.28;50.01;100437.45;1775455;80;21037;-76
2022/05/29 08:04:06;;;;;;;1.98;1.70;;;;;;;24.28;49.97;100436.88;1762186;81;21576;-76
2022/05/29 08:06:33;;;;;;;2.00;1.80;;;;;;;24.29;49.96;100432.95;1737812;80;21757;-76
2022/05/29 08:08:59;;;;;;;2.40;1.67;;;;;;;24.29;49.93;100434.34;1775649;80;21027;-76
2022/05/29 08:11:25;;;;;;;2.35;1.60;;;;;;;24.30;49.87;100422.06;1744076;80;21128;-77
2022/05/29 08:13:51;;;;;;;3.10;1.62;;;;;;;24.31;49.81;100413.14;1745201;80;21022;-76
2022/05/29 08:16:18;;;;;;;2.22;1.52;;;;;;;24.32;49.77;100414.74;1806467;79;21851;-76
2022/05/29 08:18:44;;;;;;;2.12;1.70;;;;;;;24.31;49.75;100413.95;1806938;79;21245;-77
2022/05/29 08:21:11;;;;;;;2.90;1.70;;;;;;;24.33;49.74;100424.70;1784101;79;21013;-77
2022/05/29 08:23:37;;;;;;;2.15;1.70;;;;;;;24.32;49.73;100428.64;1807319;79;20982;-76
2022/05/29 08:31:33;;;;;;;1.87;1.40;;;;;;;24.33;49.68;100442.78;1806788;79;21197;-77
2022/05/29 08:33:59;;;;;;;2.15;1.70;;;;;;;24.34;49.66;100448.58;1780834;79;21472;-76
2022/05/29 08:36:26;;;;;;;2.90;1.50;;;;;;;24.33;49.67;100455.29;1794094;79;21114;-77
2022/05/29 08:38:56;;;;;;;2.35;1.67;;;;;;;24.32;49.68;100435.02;1794057;80;20988;-76
2022/05/29 08:41:48;;;;;;;3.03;1.70;;;;;;;24.33;49.70;100427.48;1794141;79;21070;-76
2022/05/29 08:44:34;;;;;;;2.67;1.50;;;;;;;24.33;49.71;100427.48;1838590;77;21042;-77
2022/05/29 08:47:06;;;;;;;3.60;1.85;;;;;;;24.31;49.72;100400.06;1827178;78;20945;-76
2022/05/29 08:49:37;;;;;;;1.92;1.40;;;;;;;24.31;49.71;100403.41;1836386;78;20996;-77
2022/05/29 08:52:23;;;;;;;2.62;1.90;;;;;;;24.30;49.71;100408.16;1835887;77;21082;-76
2022/05/29 08:55:21;;;;;;;2.92;1.85;;;;;;;24.30;49.72;100409.55;1833676;77;21053;-77
2022/05/29 08:58:33;;;;;;;2.40;1.80;;;;;;;24.29;49.69;100387.08;1836091;78;21001;-77
2022/05/29 09:01:11;;;;;;;2.08;1.70;;;;;;;24.29;49.70;100375.95;1836269;78;21502;-77
2022/05/29 09:03:51;;;;;;;1.77;1.55;;;;;;;24.28;49.68;100386.84;1836399;77;21052;-76
2022/05/29 09:06:35;;;;;;;1.98;1.50;;;;;;;24.27;49.70;100385.25;1827424;77;21056;-77
2022/05/29 09:09:42;;;;;;;2.02;1.67;;;;;;;24.26;49.70;100403.08;1803905;78;22152;-76
2022/05/29 09:12:19;;;;;;;4.28;1.98;;;;;;;24.27;49.70;100384.43;1835829;78;21844;-76
2022/05/29 09:15:13;;;;;;;2.52;1.90;;;;;;;24.26;49.71;100393.34;1835324;78;21258;-76
2022/05/29 09:17:52;;;;;;;1.70;1.50;;;;;;;24.25;49.70;100402.84;1803521;78;21014;-77
2022/05/29 09:20:38;;;;;;;2.08;1.70;;;;;;;24.25;49.69;100413.96;1835917;77;21049;-76
2022/05/29 09:23:06;;;;;;;2.02;1.50;;;;;;;24.25;49.70;100418.13;1819045;78;21040;-76
2022/05/29 09:25:42;;;;;;;2.15;1.70;;;;;;;24.24;49.70;100427.63;1835725;77;21542;-77
2022/05/29 09:28:15;;;;;;;1.82;1.52;;;;;;;24.26;49.70;100428.67;1836114;77;21022;-77
2022/05/29 09:30:42;;;;;;;3.42;1.80;;;;;;;24.25;49.69;100420.09;1835952;77;20973;-77
2022/05/29 09:33:24;;;;;;;3.27;2.02;;;;;;;24.25;49.71;100417.32;1836248;78;20981;-76
2022/05/29 09:36:27;;;;;;;2.75;2.08;;;;;;;24.27;49.71;100424.74;1797450;77;21045;-76
2022/05/29 09:39:16;;;;;;;2.15;1.85;;;;;;;24.25;49.70;100430.64;1792917;78;21094;-76
2022/05/29 09:41:50;;;;;;;4.55;2.17;;;;;;;24.26;49.69;100436.44;1774563;79;21494;-77
2022/05/29 09:44:22;;;;;;;2.52;1.82;;;;;;;24.24;49.69;100440.14;1796298;79;21009;-76
2022/05/29 09:49:40;;;;;;;3.22;2.02;;;;;;;24.26;49.70;100442.58;1796112;78;20973;-76
2022/05/29 09:49:41;;;;;;;2.72;1.95;;;;;;;24.25;49.70;100437.59;1792954;78;21041;-77
2022/05/29 09:52:18;;;;;;;2.75;1.92;;;;;;;24.26;49.75;100430.06;1795270;79;21578;-76
2022/05/29 09:55:20;;;;;;;2.62;1.80;;;;;;;24.26;49.72;100428.09;1796431;79;20994;-76
2022/05/29 09:58:00;;;;;;;2.72;2.10;;;;;;;24.27;49.74;100434.47;1796404;79;20947;-76
2022/05/29 10:00:37;;;;;;;2.62;1.92;;;;;;;24.26;49.75;100447.56;1796446;79;21013;-76
2022/05/29 10:03:06;;;;;;;3.70;2.35;;;;;;;24.25;49.75;100442.34;1796071;79;21005;-77
2022/05/29 10:05:42;;;;;;;3.23;2.40;;;;;;;24.25;49.75;100440.37;1796400;78;21161;-77
2022/05/29 10:08:32;;;;;;;2.65;2.05;;;;;;;24.26;49.76;100444.78;1796278;79;21081;-77
2022/05/29 10:11:31;;;;;;;2.98;2.12;;;;;;;24.25;49.78;100461.22;1796652;79;21005;-76
2022/05/29 10:14:00;;;;;;;2.55;1.92;;;;;;;24.25;49.78;100452.88;1794091;78;21037;-77
2022/05/29 10:16:38;;;;;;;2.70;1.95;;;;;;;24.25;49.77;100439.56;1796372;79;21018;-77
2022/05/29 10:19:11;;;;;;;2.55;1.62;;;;;;;24.25;49.73;100433.42;1796131;79;21068;-76
2022/05/29 10:21:45;;;;;;;2.37;2.00;;;;;;;24.24;49.76;100455.42;1796470;79;21037;-77
2022/05/29 10:24:21;;;;;;;2.75;1.90;;;;;;;24.24;49.77;100476.27;1796295;78;21597;-77
2022/05/29 10:26:56;;;;;;;3.25;2.30;;;;;;;24.24;49.79;100466.55;1793339;79;20999;-76
2022/05/29 10:29:29;;;;;;;2.45;1.90;;;;;;;24.24;49.79;100455.42;1796169;79;21026;-76
2022/05/29 10:31:56;;;;;;;2.35;1.90;;;;;;;24.24;49.79;100433.19;1797451;79;21857;-77
2022/05/29 10:34:33;;;;;;;2.77;1.92;;;;;;;24.24;49.78;100392.06;1797294;79;21076;-76
2022/05/29 10:36:59;;;;;;;2.45;1.67;;;;;;;24.23;49.75;100398.20;1845320;77;21029;-77
2022/05/29 10:39:29;;;;;;;2.33;1.82;;;;;;;24.24;49.77;100455.42;1847621;77;21190;-76
2022/05/29 10:41:55;;;;;;;2.63;1.77;;;;;;;24.25;49.77;100474.30;1824597;77;21480;-76
2022/05/29 10:44:44;;;;;;;2.70;2.15;;;;;;;24.25;49.79;100472.92;1847216;77;21160;-77
2022/05/29 10:47:34;;;;;;;2.37;1.65;;;;;;;24.25;49.77;100470.95;1847237;77;20977;-77
2022/05/29 10:50:09;;;;;;;2.60;1.90;;;;;;;24.24;49.76;100479.05;1847375;77;21017;-76
2022/05/29 10:52:46;;;;;;;2.62;1.85;;;;;;;24.24;49.73;100464.34;1847457;77;21465;-77
2022/05/29 10:55:24;;;;;;;3.12;1.80;;;;;;;24.24;49.72;100444.88;1847154;77;21134;-76
2022/05/29 10:58:14;;;;;;;2.72;2.10;;;;;;;24.22;49.70;100424.41;1846710;77;21518;-77
2022/05/29 11:00:55;;;;;;;2.55;1.75;;;;;;;24.24;49.70;100425.42;1847328;77;21033;-76
2022/05/29 11:03:41;;;;;;;2.60;2.02;;;;;;;24.22;49.67;100429.97;1845693;77;21009;-76
2022/05/29 11:06:28;;;;;;;2.55;2.10;;;;;;;24.22;49.67;100416.06;1775772;77;21040;-77
2022/05/29 11:09:23;;;;;;;2.67;2.00;;;;;;;24.24;49.65;100367.86;1847217;77;21068;-76
2022/05/29 11:12:01;;;;;;;3.15;1.95;;;;;;;24.24;49.65;100360.09;1847198;77;21155;-76
2022/05/29 11:15:00;;;;;;;2.98;1.98;;;;;;;24.22;49.64;100345.76;1847303;77;21022;-76
2022/05/29 11:17:58;;;;;;;2.50;1.90;;;;;;;24.22;49.61;100344.37;1772512;80;22333;-76
2022/05/29 11:20:53;;;;;;;2.33;1.82;;;;;;;24.23;49.59;100339.05;1773964;80;21073;-76
2022/05/29 11:23:40;;;;;;;2.00;1.70;;;;;;;24.23;49.61;100332.09;1835060;77;21016;-76
2022/05/29 11:26:14;;;;;;;2.60;2.10;;;;;;;24.23;49.57;100332.09;1847511;77;21990;-76
2022/05/29 11:29:01;;;;;;;3.77;2.45;;;;;;;24.22;49.53;100329.08;1847029;77;21021;-77
2022/05/29 11:31:39;;;;;;;3.75;2.10;;;;;;;24.21;49.54;100329.66;1847623;77;21004;-77
2022/05/29 11:34:32;;;;;;;4.28;2.02;;;;;;;24.23;49.52;100327.31;1847267;77;20973;-77
2022/05/29 11:37:17;;;;;;;3.05;2.20;;;;;;;24.24;49.51;100330.91;1844811;77;21478;-77
2022/05/29 11:39:51;;;;;;;2.62;2.00;;;;;;;24.23;49.48;100339.83;1841379;77;21804;-76
2022/05/29 11:42:34;;;;;;;2.90;2.08;;;;;;;24.23;49.52;100332.88;1836154;78;21001;-77
2022/05/29 11:45:12;;;;;;;3.08;2.30;;;;;;;24.23;49.51;100331.48;1828421;78;21005;-76
2022/05/29 11:51:07;;;;;;;2.58;2.10;;;;;;;24.24;49.51;100323.95;1835993;77;21056;-77
2022/05/29 11:54:07;;;;;;;4.08;2.10;;;;;;;24.23;49.48;100320.37;1836319;78;21986;-76
2022/05/29 11:56:51;;;;;;;3.22;2.30;;;;;;;24.23;49.52;100318.98;1835878;78;21463;-76
2022/05/29 11:59:41;;;;;;;2.55;2.02;;;;;;;24.23;49.50;100309.25;1836173;77;21665;-77
2022/05/29 12:02:22;;;;;;;3.35;1.90;;;;;;;24.23;49.51;100307.86;1835723;77;21602;-77
2022/05/29 12:05:08;;;;;;;2.67;2.10;;;;;;;24.23;49.51;100305.69;1836371;78;21076;-77
2022/05/29 12:07:55;;;;;;;3.37;2.17;;;;;;;24.23;49.52;100306.47;1835561;78;21101;-76
2022/05/29 12:10:23;;;;;;;3.22;2.12;;;;;;;24.24;49.56;100309.48;1836043;78;21080;-76
2022/05/29 12:13:04;;;;;;;3.55;2.12;;;;;;;24.24;49.53;100315.04;1835710;77;20988;-76
2022/05/29 12:15:30;;;;;;;2.75;2.12;;;;;;;24.24;49.51;100302.53;1835959;77;20986;-76
2022/05/29 12:18:14;;;;;;;3.27;2.10;;;;;;;24.25;49.49;100315.85;1835422;77;20986;-76